sensor_id;sensor_type;location;lat;lon;timestamp;P1;durP1;ratioP1;P2;durP2;ratioP2
59336;SDS011;45115;52.002;4.686;2024-01-15T00:00:14;8.55;;;2.33;;
59336;SDS011;45115;52.002;4.686;2024-01-15T00:02:42;8.52;;;2.05;;
59336;SDS011;45115;52.002;4.686;2024-01-15T00:05:08;7.35;;;1.83;;
59336;SDS011;45115;52.002;4.686;2024-01-15T00:07:35;5.18;;;1.23;;
59336;SDS011;45115;52.002;4.686;2024-01-15T00:10:04;10.18;;;1.80;;
59336;SDS011;45115;52.002;4.686;2024-01-15T00:12:31;8.02;;;1.70;;
59336;SDS011;45115;52.002;4.686;2024-01-15T00:14:57;11.82;;;1.98;;
59336;SDS011;45115;52.002;4.686;2024-01-15T00:17:24;10.70;;;2.33;;
59336;SDS011;45115;52.002;4.686;2024-01-15T00:19:51;10.55;;;1.83;;
59336;SDS011;45115;52.002;4.686;2024-01-15T00:22:18;10.05;;;2.15;;
59336;SDS011;45115;52.002;4.686;2024-01-15T00:24:44;4.88;;;1.67;;
59336;SDS011;45115;52.002;4.686;2024-01-15T00:27:12;5.72;;;1.58;;
59336;SDS011;45115;52.002;4.686;2024-01-15T00:29:39;7.10;;;1.83;;
59336;SDS011;45115;52.002;4.686;2024-01-15T00:32:06;7.43;;;1.90;;
59336;SDS011;45115;52.002;4.686;2024-01-15T00:34:32;9.63;;;2.10;;
59336;SDS011;45115;52.002;4.686;2024-01-15T00:36:59;6.22;;;1.38;;
59336;SDS011;45115;52.002;4.686;2024-01-15T00:39:26;5.85;;;2.08;;
59336;SDS011;45115;52.002;4.686;2024-01-15T00:41:52;7.57;;;1.98;;
59336;SDS011;45115;52.002;4.686;2024-01-15T00:44:20;6.45;;;2.03;;
59336;SDS011;45115;52.002;4.686;2024-01-15T00:46:47;15.57;;;2.20;;
59336;SDS011;45115;52.002;4.686;2024-01-15T00:49:14;6.18;;;1.50;;
59336;SDS011;45115;52.002;4.686;2024-01-15T00:51:40;6.90;;;1.52;;
59336;SDS011;45115;52.002;4.686;2024-01-15T00:54:07;5.07;;;1.70;;
59336;SDS011;45115;52.002;4.686;2024-01-15T00:56:34;4.90;;;1.67;;
59336;SDS011;45115;52.002;4.686;2024-01-15T00:59:01;4.53;;;1.20;;
59336;SDS011;45115;52.002;4.686;2024-01-15T01:01:29;8.27;;;2.67;;
59336;SDS011;45115;52.002;4.686;2024-01-15T01:03:56;5.82;;;1.65;;
59336;SDS011;45115;52.002;4.686;2024-01-15T01:06:23;8.20;;;1.58;;
59336;SDS011;45115;52.002;4.686;2024-01-15T01:08:49;13.57;;;2.55;;
59336;SDS011;45115;52.002;4.686;2024-01-15T01:11:16;6.10;;;1.40;;
59336;SDS011;45115;52.002;4.686;2024-01-15T01:13:43;5.00;;;1.58;;
59336;SDS011;45115;52.002;4.686;2024-01-15T01:16:10;8.18;;;1.67;;
59336;SDS011;45115;52.002;4.686;2024-01-15T01:18:38;10.23;;;1.90;;
59336;SDS011;45115;52.002;4.686;2024-01-15T01:21:04;11.63;;;1.65;;
59336;SDS011;45115;52.002;4.686;2024-01-15T01:23:31;5.57;;;1.58;;
59336;SDS011;45115;52.002;4.686;2024-01-15T01:25:57;5.25;;;1.67;;
59336;SDS011;45115;52.002;4.686;2024-01-15T01:28:24;6.63;;;1.48;;
59336;SDS011;45115;52.002;4.686;2024-01-15T01:30:51;6.80;;;1.45;;
59336;SDS011;45115;52.002;4.686;2024-01-15T01:33:18;8.35;;;1.55;;
59336;SDS011;45115;52.002;4.686;2024-01-15T01:35:46;7.68;;;1.75;;
59336;SDS011;45115;52.002;4.686;2024-01-15T01:38:13;7.53;;;1.95;;
59336;SDS011;45115;52.002;4.686;2024-01-15T01:40:39;6.22;;;1.75;;
59336;SDS011;45115;52.002;4.686;2024-01-15T01:43:06;10.45;;;1.40;;
59336;SDS011;45115;52.002;4.686;2024-01-15T01:45:35;6.15;;;1.08;;
59336;SDS011;45115;52.002;4.686;2024-01-15T01:48:02;8.27;;;2.15;;
59336;SDS011;45115;52.002;4.686;2024-01-15T01:50:30;6.18;;;1.60;;
59336;SDS011;45115;52.002;4.686;2024-01-15T01:52:59;7.40;;;1.42;;
59336;SDS011;45115;52.002;4.686;2024-01-15T01:55:27;5.43;;;1.15;;
59336;SDS011;45115;52.002;4.686;2024-01-15T01:57:58;5.50;;;1.27;;
59336;SDS011;45115;52.002;4.686;2024-01-15T02:00:25;3.42;;;1.08;;
59336;SDS011;45115;52.002;4.686;2024-01-15T02:02:52;3.17;;;1.33;;
59336;SDS011;45115;52.002;4.686;2024-01-15T02:05:20;7.07;;;1.75;;
59336;SDS011;45115;52.002;4.686;2024-01-15T02:07:48;7.82;;;1.35;;
59336;SDS011;45115;52.002;4.686;2024-01-15T02:10:16;7.57;;;1.55;;
59336;SDS011;45115;52.002;4.686;2024-01-15T02:12:43;7.25;;;1.27;;
59336;SDS011;45115;52.002;4.686;2024-01-15T02:15:10;7.70;;;1.45;;
59336;SDS011;45115;52.002;4.686;2024-01-15T02:20:23;3.00;;;1.52;;
59336;SDS011;45115;52.002;4.686;2024-01-15T02:22:50;5.07;;;1.25;;
59336;SDS011;45115;52.002;4.686;2024-01-15T02:25:18;9.65;;;2.15;;
59336;SDS011;45115;52.002;4.686;2024-01-15T02:27:45;3.63;;;1.38;;
59336;SDS011;45115;52.002;4.686;2024-01-15T02:30:12;4.45;;;1.08;;
59336;SDS011;45115;52.002;4.686;2024-01-15T02:32:39;4.13;;;1.38;;
59336;SDS011;45115;52.002;4.686;2024-01-15T02:35:06;5.00;;;1.30;;
59336;SDS011;45115;52.002;4.686;2024-01-15T02:37:33;6.95;;;1.25;;
59336;SDS011;45115;52.002;4.686;2024-01-15T02:40:00;4.15;;;1.45;;
59336;SDS011;45115;52.002;4.686;2024-01-15T02:42:28;2.33;;;1.10;;
59336;SDS011;45115;52.002;4.686;2024-01-15T02:44:55;1.65;;;0.95;;
59336;SDS011;45115;52.002;4.686;2024-01-15T02:47:22;3.03;;;2.08;;
59336;SDS011;45115;52.002;4.686;2024-01-15T02:49:48;3.35;;;1.15;;
59336;SDS011;45115;52.002;4.686;2024-01-15T02:52:15;3.83;;;1.10;;
59336;SDS011;45115;52.002;4.686;2024-01-15T02:54:42;7.10;;;1.25;;
59336;SDS011;45115;52.002;4.686;2024-01-15T02:57:08;6.85;;;1.27;;
59336;SDS011;45115;52.002;4.686;2024-01-15T02:59:36;3.30;;;0.77;;
59336;SDS011;45115;52.002;4.686;2024-01-15T03:02:03;1.02;;;0.73;;
59336;SDS011;45115;52.002;4.686;2024-01-15T03:04:30;9.27;;;1.40;;
59336;SDS011;45115;52.002;4.686;2024-01-15T03:06:57;4.18;;;0.93;;
59336;SDS011;45115;52.002;4.686;2024-01-15T03:09:23;4.68;;;1.15;;
59336;SDS011;45115;52.002;4.686;2024-01-15T03:11:50;2.58;;;1.02;;
59336;SDS011;45115;52.002;4.686;2024-01-15T03:14:17;3.60;;;1.23;;
59336;SDS011;45115;52.002;4.686;2024-01-15T03:16:45;2.05;;;0.75;;
59336;SDS011;45115;52.002;4.686;2024-01-15T03:19:11;4.30;;;1.05;;
59336;SDS011;45115;52.002;4.686;2024-01-15T03:21:38;7.13;;;1.13;;
59336;SDS011;45115;52.002;4.686;2024-01-15T03:24:05;2.47;;;0.98;;
59336;SDS011;45115;52.002;4.686;2024-01-15T03:26:31;3.15;;;1.08;;
59336;SDS011;45115;52.002;4.686;2024-01-15T03:28:58;1.67;;;1.05;;
59336;SDS011;45115;52.002;4.686;2024-01-15T03:31:25;5.53;;;1.30;;
59336;SDS011;45115;52.002;4.686;2024-01-15T03:33:53;3.65;;;0.93;;
59336;SDS011;45115;52.002;4.686;2024-01-15T03:36:19;2.28;;;0.93;;
59336;SDS011;45115;52.002;4.686;2024-01-15T03:38:46;1.50;;;0.73;;
59336;SDS011;45115;52.002;4.686;2024-01-15T03:41:13;5.20;;;1.30;;
59336;SDS011;45115;52.002;4.686;2024-01-15T03:43:39;4.22;;;0.80;;
59336;SDS011;45115;52.002;4.686;2024-01-15T03:46:06;3.20;;;0.80;;
59336;SDS011;45115;52.002;4.686;2024-01-15T03:48:33;4.30;;;0.82;;
59336;SDS011;45115;52.002;4.686;2024-01-15T03:51:01;7.40;;;1.70;;
59336;SDS011;45115;52.002;4.686;2024-01-15T03:53:30;2.45;;;0.88;;
59336;SDS011;45115;52.002;4.686;2024-01-15T03:55:57;2.05;;;0.70;;
59336;SDS011;45115;52.002;4.686;2024-01-15T03:58:24;3.22;;;0.70;;
59336;SDS011;45115;52.002;4.686;2024-01-15T04:00:50;3.05;;;0.93;;
59336;SDS011;45115;52.002;4.686;2024-01-15T04:03:17;4.90;;;0.93;;
59336;SDS011;45115;52.002;4.686;2024-01-15T04:05:43;1.08;;;0.52;;
59336;SDS011;45115;52.002;4.686;2024-01-15T04:08:12;1.90;;;0.63;;
59336;SDS011;45115;52.002;4.686;2024-01-15T04:10:38;0.95;;;0.70;;
59336;SDS011;45115;52.002;4.686;2024-01-15T04:13:05;2.53;;;0.50;;
59336;SDS011;45115;52.002;4.686;2024-01-15T04:15:32;2.63;;;1.00;;
59336;SDS011;45115;52.002;4.686;2024-01-15T04:18:00;1.38;;;0.43;;
59336;SDS011;45115;52.002;4.686;2024-01-15T04:20:27;1.77;;;0.77;;
59336;SDS011;45115;52.002;4.686;2024-01-15T04:22:53;3.80;;;0.75;;
59336;SDS011;45115;52.002;4.686;2024-01-15T04:25:21;4.38;;;1.02;;
59336;SDS011;45115;52.002;4.686;2024-01-15T04:27:48;3.03;;;0.60;;
59336;SDS011;45115;52.002;4.686;2024-01-15T04:30:15;1.13;;;0.77;;
59336;SDS011;45115;52.002;4.686;2024-01-15T04:32:42;1.60;;;1.27;;
59336;SDS011;45115;52.002;4.686;2024-01-15T04:35:08;2.00;;;0.82;;
59336;SDS011;45115;52.002;4.686;2024-01-15T04:37:35;6.15;;;1.25;;
59336;SDS011;45115;52.002;4.686;2024-01-15T04:40:02;2.92;;;1.13;;
59336;SDS011;45115;52.002;4.686;2024-01-15T04:42:30;0.38;;;0.38;;
59336;SDS011;45115;52.002;4.686;2024-01-15T04:44:57;0.30;;;0.30;;
59336;SDS011;45115;52.002;4.686;2024-01-15T04:47:24;0.40;;;0.40;;
59336;SDS011;45115;52.002;4.686;2024-01-15T04:49:50;4.13;;;0.73;;
59336;SDS011;45115;52.002;4.686;2024-01-15T04:52:17;2.45;;;0.75;;
59336;SDS011;45115;52.002;4.686;2024-01-15T04:54:44;4.45;;;1.30;;
59336;SDS011;45115;52.002;4.686;2024-01-15T04:57:11;1.60;;;0.57;;
59336;SDS011;45115;52.002;4.686;2024-01-15T04:59:39;2.17;;;0.80;;
59336;SDS011;45115;52.002;4.686;2024-01-15T05:02:05;3.10;;;0.70;;
59336;SDS011;45115;52.002;4.686;2024-01-15T05:04:32;2.05;;;0.63;;
59336;SDS011;45115;52.002;4.686;2024-01-15T05:06:59;3.72;;;1.48;;
59336;SDS011;45115;52.002;4.686;2024-01-15T05:09:25;3.05;;;1.17;;
59336;SDS011;45115;52.002;4.686;2024-01-15T05:11:52;3.50;;;1.05;;
59336;SDS011;45115;52.002;4.686;2024-01-15T05:14:19;3.20;;;0.82;;
59336;SDS011;45115;52.002;4.686;2024-01-15T05:16:50;3.60;;;1.02;;
59336;SDS011;45115;52.002;4.686;2024-01-15T05:21:44;3.30;;;0.68;;
59336;SDS011;45115;52.002;4.686;2024-01-15T05:24:11;3.85;;;0.88;;
59336;SDS011;45115;52.002;4.686;2024-01-15T05:26:37;3.08;;;0.73;;
59336;SDS011;45115;52.002;4.686;2024-01-15T05:29:04;3.25;;;0.90;;
59336;SDS011;45115;52.002;4.686;2024-01-15T05:31:31;1.92;;;0.60;;
59336;SDS011;45115;52.002;4.686;2024-01-15T05:34:01;2.42;;;0.90;;
59336;SDS011;45115;52.002;4.686;2024-01-15T05:36:32;2.17;;;0.93;;
59336;SDS011;45115;52.002;4.686;2024-01-15T05:38:59;3.70;;;0.70;;
59336;SDS011;45115;52.002;4.686;2024-01-15T05:41:26;3.53;;;1.92;;
59336;SDS011;45115;52.002;4.686;2024-01-15T05:43:53;1.13;;;0.60;;
59336;SDS011;45115;52.002;4.686;2024-01-15T05:46:19;1.80;;;1.10;;
59336;SDS011;45115;52.002;4.686;2024-01-15T05:48:46;2.80;;;1.23;;
59336;SDS011;45115;52.002;4.686;2024-01-15T05:51:14;1.33;;;0.65;;
59336;SDS011;45115;52.002;4.686;2024-01-15T05:53:41;3.35;;;0.65;;
59336;SDS011;45115;52.002;4.686;2024-01-15T05:56:09;1.30;;;0.50;;
59336;SDS011;45115;52.002;4.686;2024-01-15T05:58:37;1.05;;;0.52;;
59336;SDS011;45115;52.002;4.686;2024-01-15T06:01:03;2.65;;;0.80;;
59336;SDS011;45115;52.002;4.686;2024-01-15T06:03:30;1.45;;;0.77;;
59336;SDS011;45115;52.002;4.686;2024-01-15T06:05:57;1.88;;;0.63;;
59336;SDS011;45115;52.002;4.686;2024-01-15T06:08:25;1.35;;;0.80;;
59336;SDS011;45115;52.002;4.686;2024-01-15T06:10:52;1.23;;;0.90;;
59336;SDS011;45115;52.002;4.686;2024-01-15T06:13:19;1.42;;;0.82;;
59336;SDS011;45115;52.002;4.686;2024-01-15T06:15:46;3.13;;;1.00;;
59336;SDS011;45115;52.002;4.686;2024-01-15T06:18:12;2.83;;;0.80;;
59336;SDS011;45115;52.002;4.686;2024-01-15T06:20:39;3.83;;;1.17;;
59336;SDS011;45115;52.002;4.686;2024-01-15T06:23:06;2.40;;;0.88;;
59336;SDS011;45115;52.002;4.686;2024-01-15T06:25:34;3.25;;;1.00;;
59336;SDS011;45115;52.002;4.686;2024-01-15T06:28:01;8.20;;;1.08;;
59336;SDS011;45115;52.002;4.686;2024-01-15T06:30:30;2.75;;;0.80;;
59336;SDS011;45115;52.002;4.686;2024-01-15T06:32:56;2.42;;;1.15;;
59336;SDS011;45115;52.002;4.686;2024-01-15T06:35:23;4.40;;;1.58;;
59336;SDS011;45115;52.002;4.686;2024-01-15T06:37:50;4.30;;;0.88;;
59336;SDS011;45115;52.002;4.686;2024-01-15T06:40:17;2.78;;;0.70;;
59336;SDS011;45115;52.002;4.686;2024-01-15T06:42:45;4.07;;;1.65;;
59336;SDS011;45115;52.002;4.686;2024-01-15T06:45:12;1.40;;;0.60;;
59336;SDS011;45115;52.002;4.686;2024-01-15T06:47:39;2.63;;;0.60;;
59336;SDS011;45115;52.002;4.686;2024-01-15T06:50:07;3.15;;;0.60;;
59336;SDS011;45115;52.002;4.686;2024-01-15T06:52:34;0.30;;;0.30;;
59336;SDS011;45115;52.002;4.686;2024-01-15T06:55:01;2.03;;;0.98;;
59336;SDS011;45115;52.002;4.686;2024-01-15T06:57:29;3.35;;;0.73;;
59336;SDS011;45115;52.002;4.686;2024-01-15T06:59:57;1.75;;;0.60;;
59336;SDS011;45115;52.002;4.686;2024-01-15T07:02:24;2.75;;;1.27;;
59336;SDS011;45115;52.002;4.686;2024-01-15T07:04:52;1.20;;;0.60;;
59336;SDS011;45115;52.002;4.686;2024-01-15T07:07:18;4.72;;;0.75;;
59336;SDS011;45115;52.002;4.686;2024-01-15T07:09:45;4.57;;;0.93;;
59336;SDS011;45115;52.002;4.686;2024-01-15T07:12:12;1.52;;;0.80;;
59336;SDS011;45115;52.002;4.686;2024-01-15T07:14:42;3.20;;;0.75;;
59336;SDS011;45115;52.002;4.686;2024-01-15T07:17:26;4.43;;;0.90;;
59336;SDS011;45115;52.002;4.686;2024-01-15T07:19:52;3.50;;;0.65;;
59336;SDS011;45115;52.002;4.686;2024-01-15T07:22:19;0.80;;;0.70;;
59336;SDS011;45115;52.002;4.686;2024-01-15T07:24:46;5.57;;;0.90;;
59336;SDS011;45115;52.002;4.686;2024-01-15T07:27:13;0.98;;;0.90;;
59336;SDS011;45115;52.002;4.686;2024-01-15T07:29:40;2.55;;;0.98;;
59336;SDS011;45115;52.002;4.686;2024-01-15T07:32:08;1.58;;;1.08;;
59336;SDS011;45115;52.002;4.686;2024-01-15T07:34:36;2.90;;;1.02;;
59336;SDS011;45115;52.002;4.686;2024-01-15T07:37:03;4.47;;;1.23;;
59336;SDS011;45115;52.002;4.686;2024-01-15T07:39:30;6.63;;;1.00;;
59336;SDS011;45115;52.002;4.686;2024-01-15T07:41:57;1.58;;;0.70;;
59336;SDS011;45115;52.002;4.686;2024-01-15T07:44:24;3.55;;;1.40;;
59336;SDS011;45115;52.002;4.686;2024-01-15T07:46:51;1.80;;;1.00;;
59336;SDS011;45115;52.002;4.686;2024-01-15T07:49:17;2.92;;;0.77;;
59336;SDS011;45115;52.002;4.686;2024-01-15T07:51:46;2.15;;;0.85;;
59336;SDS011;45115;52.002;4.686;2024-01-15T07:54:13;1.80;;;0.80;;
59336;SDS011;45115;52.002;4.686;2024-01-15T07:56:53;2.58;;;0.88;;
59336;SDS011;45115;52.002;4.686;2024-01-15T07:59:20;2.90;;;1.30;;
59336;SDS011;45115;52.002;4.686;2024-01-15T08:01:46;1.58;;;1.13;;
59336;SDS011;45115;52.002;4.686;2024-01-15T08:04:13;4.38;;;1.38;;
59336;SDS011;45115;52.002;4.686;2024-01-15T08:06:40;5.38;;;2.17;;
59336;SDS011;45115;52.002;4.686;2024-01-15T08:09:08;2.05;;;1.38;;
59336;SDS011;45115;52.002;4.686;2024-01-15T08:11:35;3.13;;;1.50;;
59336;SDS011;45115;52.002;4.686;2024-01-15T08:14:02;2.63;;;1.77;;
59336;SDS011;45115;52.002;4.686;2024-01-15T08:16:29;6.90;;;1.88;;
59336;SDS011;45115;52.002;4.686;2024-01-15T08:18:56;5.65;;;2.00;;
59336;SDS011;45115;52.002;4.686;2024-01-15T08:21:23;3.90;;;1.73;;
59336;SDS011;45115;52.002;4.686;2024-01-15T08:27:07;8.80;;;2.22;;
59336;SDS011;45115;52.002;4.686;2024-01-15T08:29:37;4.18;;;1.75;;
59336;SDS011;45115;52.002;4.686;2024-01-15T08:32:13;12.35;;;3.42;;
59336;SDS011;45115;52.002;4.686;2024-01-15T08:37:41;7.15;;;1.90;;
59336;SDS011;45115;52.002;4.686;2024-01-15T08:40:09;6.88;;;1.83;;
59336;SDS011;45115;52.002;4.686;2024-01-15T08:42:38;6.60;;;1.45;;
59336;SDS011;45115;52.002;4.686;2024-01-15T08:45:05;12.35;;;2.10;;
59336;SDS011;45115;52.002;4.686;2024-01-15T08:47:32;11.57;;;2.10;;
59336;SDS011;45115;52.002;4.686;2024-01-15T08:49:59;6.25;;;1.88;;
59336;SDS011;45115;52.002;4.686;2024-01-15T08:52:27;9.32;;;1.85;;
59336;SDS011;45115;52.002;4.686;2024-01-15T08:54:54;5.60;;;1.77;;
59336;SDS011;45115;52.002;4.686;2024-01-15T08:57:21;4.63;;;1.38;;
59336;SDS011;45115;52.002;4.686;2024-01-15T08:59:50;6.38;;;1.90;;
59336;SDS011;45115;52.002;4.686;2024-01-15T09:02:17;10.68;;;1.85;;
59336;SDS011;45115;52.002;4.686;2024-01-15T09:04:47;2.85;;;1.13;;
59336;SDS011;45115;52.002;4.686;2024-01-15T09:07:15;3.80;;;1.30;;
59336;SDS011;45115;52.002;4.686;2024-01-15T09:09:43;5.85;;;1.25;;
59336;SDS011;45115;52.002;4.686;2024-01-15T09:12:10;2.70;;;1.02;;
59336;SDS011;45115;52.002;4.686;2024-01-15T09:14:40;4.25;;;1.25;;
59336;SDS011;45115;52.002;4.686;2024-01-15T09:17:10;4.10;;;0.80;;
59336;SDS011;45115;52.002;4.686;2024-01-15T09:19:37;5.90;;;1.23;;
59336;SDS011;45115;52.002;4.686;2024-01-15T09:22:07;5.30;;;1.47;;
59336;SDS011;45115;52.002;4.686;2024-01-15T09:27:32;3.88;;;1.40;;
59336;SDS011;45115;52.002;4.686;2024-01-15T09:29:59;3.15;;;1.30;;
59336;SDS011;45115;52.002;4.686;2024-01-15T09:32:27;5.85;;;1.38;;
59336;SDS011;45115;52.002;4.686;2024-01-15T09:34:55;7.05;;;1.40;;
59336;SDS011;45115;52.002;4.686;2024-01-15T09:37:25;5.18;;;1.25;;
59336;SDS011;45115;52.002;4.686;2024-01-15T09:39:52;6.18;;;1.95;;
59336;SDS011;45115;52.002;4.686;2024-01-15T09:42:22;5.50;;;1.30;;
59336;SDS011;45115;52.002;4.686;2024-01-15T09:44:55;3.83;;;1.10;;
59336;SDS011;45115;52.002;4.686;2024-01-15T09:51:38;2.88;;;1.13;;
59336;SDS011;45115;52.002;4.686;2024-01-15T09:54:12;3.08;;;1.05;;
59336;SDS011;45115;52.002;4.686;2024-01-15T09:56:42;5.40;;;1.20;;
59336;SDS011;45115;52.002;4.686;2024-01-15T09:59:21;5.03;;;1.23;;
59336;SDS011;45115;52.002;4.686;2024-01-15T10:01:50;4.13;;;1.23;;
59336;SDS011;45115;52.002;4.686;2024-01-15T10:04:19;7.38;;;2.05;;
59336;SDS011;45115;52.002;4.686;2024-01-15T10:06:48;4.18;;;1.08;;
59336;SDS011;45115;52.002;4.686;2024-01-15T10:09:17;4.40;;;1.17;;
59336;SDS011;45115;52.002;4.686;2024-01-15T10:11:47;2.33;;;1.30;;
59336;SDS011;45115;52.002;4.686;2024-01-15T10:14:14;3.63;;;1.17;;
59336;SDS011;45115;52.002;4.686;2024-01-15T10:16:41;3.20;;;1.27;;
59336;SDS011;45115;52.002;4.686;2024-01-15T10:19:09;2.20;;;1.25;;
59336;SDS011;45115;52.002;4.686;2024-01-15T10:21:38;2.17;;;0.85;;
59336;SDS011;45115;52.002;4.686;2024-01-15T10:24:08;4.57;;;1.20;;
59336;SDS011;45115;52.002;4.686;2024-01-15T10:26:35;5.68;;;1.45;;
59336;SDS011;45115;52.002;4.686;2024-01-15T10:29:02;4.63;;;1.30;;
59336;SDS011;45115;52.002;4.686;2024-01-15T10:31:29;3.10;;;1.02;;
59336;SDS011;45115;52.002;4.686;2024-01-15T10:34:02;3.35;;;1.05;;
59336;SDS011;45115;52.002;4.686;2024-01-15T10:36:38;3.38;;;1.02;;
59336;SDS011;45115;52.002;4.686;2024-01-15T10:39:07;4.45;;;1.13;;
59336;SDS011;45115;52.002;4.686;2024-01-15T10:41:37;2.88;;;1.02;;
59336;SDS011;45115;52.002;4.686;2024-01-15T10:44:10;4.80;;;1.00;;
59336;SDS011;45115;52.002;4.686;2024-01-15T10:46:38;3.53;;;0.82;;
59336;SDS011;45115;52.002;4.686;2024-01-15T10:49:06;1.70;;;1.52;;
59336;SDS011;45115;52.002;4.686;2024-01-15T10:51:34;2.78;;;0.90;;
59336;SDS011;45115;52.002;4.686;2024-01-15T10:54:09;7.97;;;1.23;;
59336;SDS011;45115;52.002;4.686;2024-01-15T10:56:39;2.53;;;0.95;;
59336;SDS011;45115;52.002;4.686;2024-01-15T10:59:07;7.15;;;1.30;;
59336;SDS011;45115;52.002;4.686;2024-01-15T11:01:42;4.60;;;1.40;;
59336;SDS011;45115;52.002;4.686;2024-01-15T11:04:14;2.97;;;1.15;;
59336;SDS011;45115;52.002;4.686;2024-01-15T11:06:43;5.20;;;1.73;;
59336;SDS011;45115;52.002;4.686;2024-01-15T11:09:13;5.20;;;1.20;;
59336;SDS011;45115;52.002;4.686;2024-01-15T11:11:43;5.68;;;1.55;;
59336;SDS011;45115;52.002;4.686;2024-01-15T11:17:00;4.45;;;1.58;;
59336;SDS011;45115;52.002;4.686;2024-01-15T11:19:34;4.85;;;1.80;;
59336;SDS011;45115;52.002;4.686;2024-01-15T11:22:06;6.55;;;1.55;;
59336;SDS011;45115;52.002;4.686;2024-01-15T11:24:39;2.38;;;1.02;;
59336;SDS011;45115;52.002;4.686;2024-01-15T11:27:07;4.53;;;1.60;;
59336;SDS011;45115;52.002;4.686;2024-01-15T11:29:35;4.95;;;1.27;;
59336;SDS011;45115;52.002;4.686;2024-01-15T11:32:06;3.17;;;0.95;;
59336;SDS011;45115;52.002;4.686;2024-01-15T11:37:23;3.97;;;1.27;;
59336;SDS011;45115;52.002;4.686;2024-01-15T11:40:02;2.10;;;0.93;;
59336;SDS011;45115;52.002;4.686;2024-01-15T11:42:30;3.30;;;0.65;;
59336;SDS011;45115;52.002;4.686;2024-01-15T11:45:00;0.63;;;0.60;;
59336;SDS011;45115;52.002;4.686;2024-01-15T11:47:45;2.92;;;1.20;;
59336;SDS011;45115;52.002;4.686;2024-01-15T11:50:30;3.90;;;1.08;;
59336;SDS011;45115;52.002;4.686;2024-01-15T11:52:59;3.53;;;1.40;;
59336;SDS011;45115;52.002;4.686;2024-01-15T11:58:14;5.13;;;1.80;;
59336;SDS011;45115;52.002;4.686;2024-01-15T12:00:47;3.35;;;1.25;;
59336;SDS011;45115;52.002;4.686;2024-01-15T12:03:17;8.48;;;2.47;;
59336;SDS011;45115;52.002;4.686;2024-01-15T12:05:47;5.50;;;1.48;;
59336;SDS011;45115;52.002;4.686;2024-01-15T12:08:15;6.03;;;1.52;;
59336;SDS011;45115;52.002;4.686;2024-01-15T12:10:49;5.20;;;1.40;;
59336;SDS011;45115;52.002;4.686;2024-01-15T12:13:16;3.65;;;1.20;;
59336;SDS011;45115;52.002;4.686;2024-01-15T12:15:47;1.50;;;1.20;;
59336;SDS011;45115;52.002;4.686;2024-01-15T12:18:14;7.07;;;1.30;;
59336;SDS011;45115;52.002;4.686;2024-01-15T12:20:44;8.43;;;1.42;;
59336;SDS011;45115;52.002;4.686;2024-01-15T12:23:12;7.05;;;1.95;;
59336;SDS011;45115;52.002;4.686;2024-01-15T12:25:39;3.80;;;1.27;;
59336;SDS011;45115;52.002;4.686;2024-01-15T12:28:08;6.25;;;1.67;;
59336;SDS011;45115;52.002;4.686;2024-01-15T12:30:35;3.53;;;1.27;;
59336;SDS011;45115;52.002;4.686;2024-01-15T12:33:04;2.72;;;1.75;;
59336;SDS011;45115;52.002;4.686;2024-01-15T12:35:31;3.53;;;1.27;;
59336;SDS011;45115;52.002;4.686;2024-01-15T12:37:59;1.13;;;0.93;;
59336;SDS011;45115;52.002;4.686;2024-01-15T12:40:30;6.05;;;1.52;;
59336;SDS011;45115;52.002;4.686;2024-01-15T12:42:57;5.68;;;1.02;;
59336;SDS011;45115;52.002;4.686;2024-01-15T12:45:26;2.75;;;1.40;;
59336;SDS011;45115;52.002;4.686;2024-01-15T12:47:53;7.72;;;1.67;;
59336;SDS011;45115;52.002;4.686;2024-01-15T12:50:23;8.68;;;1.98;;
59336;SDS011;45115;52.002;4.686;2024-01-15T12:52:53;6.13;;;1.58;;
59336;SDS011;45115;52.002;4.686;2024-01-15T12:55:20;5.10;;;1.52;;
59336;SDS011;45115;52.002;4.686;2024-01-15T12:57:47;10.43;;;1.75;;
59336;SDS011;45115;52.002;4.686;2024-01-15T13:00:15;8.45;;;1.90;;
59336;SDS011;45115;52.002;4.686;2024-01-15T13:02:43;5.20;;;1.75;;
59336;SDS011;45115;52.002;4.686;2024-01-15T13:05:10;7.43;;;1.92;;
59336;SDS011;45115;52.002;4.686;2024-01-15T13:07:37;12.45;;;2.80;;
59336;SDS011;45115;52.002;4.686;2024-01-15T13:10:04;6.80;;;1.75;;
59336;SDS011;45115;52.002;4.686;2024-01-15T13:12:32;8.27;;;2.42;;
59336;SDS011;45115;52.002;4.686;2024-01-15T13:14:59;10.02;;;2.13;;
59336;SDS011;45115;52.002;4.686;2024-01-15T13:17:28;9.15;;;1.88;;
59336;SDS011;45115;52.002;4.686;2024-01-15T13:19:57;6.65;;;2.08;;
59336;SDS011;45115;52.002;4.686;2024-01-15T13:22:23;5.43;;;1.73;;
59336;SDS011;45115;52.002;4.686;2024-01-15T13:27:21;4.28;;;1.30;;
59336;SDS011;45115;52.002;4.686;2024-01-15T13:29:48;1.33;;;0.80;;
59336;SDS011;45115;52.002;4.686;2024-01-15T13:32:15;4.13;;;1.20;;
59336;SDS011;45115;52.002;4.686;2024-01-15T13:34:48;1.58;;;1.15;;
59336;SDS011;45115;52.002;4.686;2024-01-15T13:37:17;3.65;;;1.15;;
59336;SDS011;45115;52.002;4.686;2024-01-15T13:39:43;1.60;;;0.73;;
59336;SDS011;45115;52.002;4.686;2024-01-15T13:42:13;8.27;;;1.10;;
59336;SDS011;45115;52.002;4.686;2024-01-15T13:44:40;5.03;;;1.23;;
59336;SDS011;45115;52.002;4.686;2024-01-15T13:47:09;4.22;;;1.23;;
59336;SDS011;45115;52.002;4.686;2024-01-15T13:49:35;3.05;;;1.30;;
59336;SDS011;45115;52.002;4.686;2024-01-15T13:52:03;3.67;;;1.40;;
59336;SDS011;45115;52.002;4.686;2024-01-15T13:54:31;4.80;;;1.63;;
59336;SDS011;45115;52.002;4.686;2024-01-15T13:56:58;5.43;;;1.50;;
59336;SDS011;45115;52.002;4.686;2024-01-15T13:59:25;7.15;;;1.58;;
59336;SDS011;45115;52.002;4.686;2024-01-15T14:01:51;5.70;;;1.42;;
59336;SDS011;45115;52.002;4.686;2024-01-15T14:04:18;7.35;;;2.22;;
59336;SDS011;45115;52.002;4.686;2024-01-15T14:06:45;11.40;;;1.95;;
59336;SDS011;45115;52.002;4.686;2024-01-15T14:09:12;7.35;;;2.00;;
59336;SDS011;45115;52.002;4.686;2024-01-15T14:11:41;10.57;;;2.20;;
59336;SDS011;45115;52.002;4.686;2024-01-15T14:14:07;6.80;;;2.25;;
59336;SDS011;45115;52.002;4.686;2024-01-15T14:16:34;6.28;;;1.73;;
59336;SDS011;45115;52.002;4.686;2024-01-15T14:19:01;5.72;;;1.60;;
59336;SDS011;45115;52.002;4.686;2024-01-15T14:21:31;9.52;;;2.13;;
59336;SDS011;45115;52.002;4.686;2024-01-15T14:24:00;12.50;;;2.20;;
59336;SDS011;45115;52.002;4.686;2024-01-15T14:26:27;7.55;;;2.10;;
59336;SDS011;45115;52.002;4.686;2024-01-15T14:28:55;10.70;;;2.38;;
59336;SDS011;45115;52.002;4.686;2024-01-15T14:31:23;9.02;;;2.38;;
59336;SDS011;45115;52.002;4.686;2024-01-15T14:33:51;9.73;;;2.33;;
59336;SDS011;45115;52.002;4.686;2024-01-15T14:36:18;7.80;;;2.47;;
59336;SDS011;45115;52.002;4.686;2024-01-15T14:38:46;10.52;;;2.42;;
59336;SDS011;45115;52.002;4.686;2024-01-15T14:41:14;8.32;;;2.08;;
59336;SDS011;45115;52.002;4.686;2024-01-15T14:43:41;10.35;;;2.00;;
59336;SDS011;45115;52.002;4.686;2024-01-15T14:46:10;8.15;;;1.90;;
59336;SDS011;45115;52.002;4.686;2024-01-15T14:48:37;4.72;;;1.92;;
59336;SDS011;45115;52.002;4.686;2024-01-15T14:51:05;12.95;;;2.58;;
59336;SDS011;45115;52.002;4.686;2024-01-15T14:53:32;9.30;;;2.67;;
59336;SDS011;45115;52.002;4.686;2024-01-15T14:55:59;9.10;;;1.58;;
59336;SDS011;45115;52.002;4.686;2024-01-15T14:58:27;5.80;;;2.17;;
59336;SDS011;45115;52.002;4.686;2024-01-15T15:00:54;5.15;;;1.85;;
59336;SDS011;45115;52.002;4.686;2024-01-15T15:03:25;4.90;;;1.27;;
59336;SDS011;45115;52.002;4.686;2024-01-15T15:08:19;5.55;;;1.25;;
59336;SDS011;45115;52.002;4.686;2024-01-15T15:11:02;2.30;;;1.05;;
59336;SDS011;45115;52.002;4.686;2024-01-15T15:13:36;3.55;;;1.10;;
59336;SDS011;45115;52.002;4.686;2024-01-15T15:16:04;2.78;;;1.17;;
59336;SDS011;45115;52.002;4.686;2024-01-15T15:18:34;3.42;;;1.25;;
59336;SDS011;45115;52.002;4.686;2024-01-15T15:21:03;4.70;;;1.35;;
59336;SDS011;45115;52.002;4.686;2024-01-15T15:23:35;4.65;;;1.40;;